• Join FlightAware (Why Join?)
  • Login
  • US Flag 
03:54PM EDT


 

Airport Tracker/Info


-or-


 

Live Flight TrackerFlight Track Log ✈ SWA59 ✈ 09-May-2013 ✈ KDAL - KHOU

Flight Track Log - Related Links

Times and Time Zones

All times are in EDT time to prevent confusion due to time zone crossing. See the SWA59 flight status page for this flight to view local times or setup timezone preferences in your user account.

Time Position Orientation Groundspeed Altitude Reporting Facility
EDT Latitude Longitude Course Direction KTS MPH feet Rate Location/Type
11:57PM 32.8333 -96.8333 180° South 153 176 1,700  Level Dallas / Fort Worth TRACON
11:57PM 32.8167 -96.8333 180° South 168 193 2,400 2,760 Climbing Dallas / Fort Worth TRACON
11:58PM 32.7667 -96.8000 151° Southeast 255 293 5,300 2,460 Climbing Dallas / Fort Worth TRACON
11:59PM 32.6833 -96.7833 170° South 287 330 7,400 2,400 Climbing Dallas / Fort Worth TRACON
12:00AM 32.6167 -96.8167 203° Southwest 285 328 10,100 2,820 Climbing Dallas / Fort Worth TRACON
12:01AM 32.5272 -96.8492 197° South 329 379 13,300 3,480 Climbing Fort Worth Center
12:02AM 32.4336 -96.8817 196° South 350 403 17,300 3,420 Climbing Fort Worth Center
12:03AM 32.3356 -96.9192 198° South 360 414 20,200 2,940 Climbing Fort Worth Center
12:04AM 32.2417 -96.9319 187° South 376 433 23,200 2,880 Climbing Fort Worth Center
12:05AM 32.1225 -96.9153 173° South 381 438 26,000 2,700 Climbing Fort Worth Center
12:06AM 32.0033 -96.8867 168° South 410 472 28,600 2,640 Climbing Fort Worth Center
12:08AM 31.8458 -96.8203 160° South 417 480 32,600 1,740 Climbing Houston Center
12:09AM 31.7339 -96.7797 163° South 417 480 33,000 180 Climbing Houston Center
12:10AM 31.6233 -96.7361 161° South 413 475 33,000  Level Houston Center
12:11AM 31.5117 -96.6950 163° South 414 476 33,000 -60 Level Houston Center
12:12AM 31.4014 -96.6528 162° South 412 474 32,900 -600 Descending Houston Center
12:13AM 31.2889 -96.6094 162° South 416 479 31,900 -1,260 Descending Houston Center
12:14AM 31.1747 -96.5664 162° South 422 486 30,400 -1,800 Descending Houston Center
12:15AM 31.0669 -96.5253 162° South 408 470 28,300 -2,040 Descending Houston Center
12:16AM 30.9625 -96.4867 162° South 394 453 26,300 -1,980 Descending Houston Center
12:17AM 30.8625 -96.4489 162° South 381 438 24,300 -1,920 Descending Houston Center
12:18AM 30.7661 -96.4122 162° South 365 420 22,400 -1,860 Descending Houston Center
12:19AM 30.6733 -96.3789 163° South 348 400 20,600 -1,800 Descending Houston Center
12:20AM 30.5831 -96.3450 162° South 338 389 18,800 -1,860 Descending Houston Center
12:21AM 30.4933 -96.3122 163° South 335 386 16,900 -1,920 Descending Houston Center
12:22AM 30.4117 -96.2842 163° South 331 381 15,200 -1,920 Descending Houston Center
12:22AM 30.3683 -96.2672 161° South 328 377 14,200 -1,860 Descending Houston Center
12:23AM 30.3172 -96.2469 161° South 327 376 13,200 -1,800 Descending Houston Center
12:23AM 30.2794 -96.2336 163° South 324 373 12,400 -1,800 Descending Houston Center
12:24AM 30.2303 -96.2158 163° South 323 372 11,400 -1,560 Descending Houston Center
12:24AM 30.1992 -96.2042 162° South 317 365 11,000 -420 Descending Houston Center
12:25AM 30.1486 -96.1769 155° Southeast 316 364 11,000  Level Houston Center
12:25AM 30.1136 -96.1581 155° Southeast 309 356 11,000  Level Houston Center
12:26AM 30.0714 -96.1356 155° Southeast 307 353 11,000  Level Houston Center
12:26AM 30.0364 -96.1161 154° Southeast 308 354 11,000  Level Houston Center
12:27AM 29.9928 -96.0933 156° South 309 356 11,000  Level Houston Center
12:27AM 29.9639 -96.0786 156° South 308 354 11,000  Level Houston Center
12:28AM 29.9142 -96.0517 155° Southeast 310 357 11,000  Level Houston Center
12:28AM 29.8850 -96.0369 156° South 311 358 11,000 -240 Level Houston Center
12:29AM 29.8419 -96.0094 151° Southeast 314 361 10,800 -1,140 Descending Houston Center
12:29AM 29.8183 -95.9722 126° Southeast 328 377 9,900 -1,200 Descending Houston Center
12:30AM 29.7875 -95.9294 130° Southeast 316 364 9,600 -720 Descending Houston Center
12:30AM 29.7611 -95.8922 129° Southeast 309 356 9,200 -1,020 Descending Houston Center
12:31AM 29.7522 -95.8425 102° East 309 356 8,600 -1,320 Descending Houston Center
12:31AM 29.7442 -95.7956 101° East 302 348 7,900 -1,620 Descending Houston Center
12:32AM 29.7294 -95.7011 100° East 299 344 6,500 -1,380 Descending Houston Center
12:33AM 29.7214 -95.6553 101° East 294 338 5,600 -1,620 Descending Houston Center
12:33AM 29.7189 -95.6061 93° East 295 339 4,900 -1,680 Descending Houston Center
12:34AM 29.7425 -95.5481 65° Northeast 293 337 3,900 -1,380 Descending Houston Center
12:34AM 29.7556 -95.5225 60° Northeast 292 336 3,500 -1,140 Descending Houston Center
12:35AM 29.7764 -95.4644 68° East 288 331 2,800 -840 Descending Houston Center
12:36AM 29.7631 -95.4228 110° East 236 272 2,500 -720 Descending Houston Center
12:36AM 29.7469 -95.4000 129° Southeast 248 285 2,100 -600 Descending Houston Center
12:37AM 29.7300 -95.3811 136° Southeast 179 206 2,000 -300 Descending Houston Center
12:37AM 29.7133 -95.3608 133° Southeast 205 236 1,800 -600 Descending Houston Center
12:38AM 29.6992 -95.3439 134° Southeast 155 178 1,400 -720 Descending Houston Center
12:38AM 29.6861 -95.3281 134° Southeast 171 197 1,100 -600 Descending Houston Center
12:39AM 29.6756 -95.3156 134° Southeast 121 139 800 -720 Descending Houston Center
12:39AM 29.6633 -95.3000 132° Southeast 142 163 400 -480 Descending Houston Center
12:40AM 29.6425 -95.2756 134° Southeast 132 152 100 -300 Descending Houston Center
12:42AM 29.6454 -95.2789 North  Level Estimated